createdAt,value
2023-05-06T00:00:19.864Z,22.63
2023-05-06T00:02:46.948Z,24.67
2023-05-06T00:05:14.065Z,25.33
2023-05-06T00:07:40.292Z,21.70
2023-05-06T00:10:06.641Z,23.83
2023-05-06T00:12:33.039Z,24.35
2023-05-06T00:14:59.293Z,24.23
2023-05-06T00:17:25.519Z,25.88
2023-05-06T00:19:52.287Z,25.83
2023-05-06T00:22:18.480Z,28.52
2023-05-06T00:24:44.693Z,25.77
2023-05-06T00:27:11.277Z,26.23
2023-05-06T00:29:37.493Z,27.52
2023-05-06T00:32:03.947Z,26.67
2023-05-06T00:34:30.452Z,27.92
2023-05-06T00:36:56.658Z,28.27
2023-05-06T00:39:22.948Z,27.13
2023-05-06T00:41:49.227Z,26.40
2023-05-06T00:44:15.636Z,26.48
2023-05-06T00:46:42.384Z,27.52
2023-05-06T00:49:08.731Z,24.67
2023-05-06T00:51:35.155Z,28.83
2023-05-06T00:54:01.859Z,31.83
2023-05-06T00:56:28.220Z,28.42
2023-05-06T00:58:54.472Z,28.98
2023-05-06T01:01:22.789Z,24.70
2023-05-06T01:03:49.312Z,25.90
2023-05-06T01:06:20.473Z,28.35
2023-05-06T01:09:09.465Z,27.02
2023-05-06T01:11:45.735Z,24.73
2023-05-06T01:14:17.957Z,23.05
2023-05-06T01:16:45.335Z,27.45
2023-05-06T01:19:17.561Z,25.00
2023-05-06T01:21:46.076Z,31.15
2023-05-06T01:24:12.271Z,28.02
2023-05-06T01:26:38.489Z,29.65
2023-05-06T01:29:04.892Z,27.20
2023-05-06T01:31:43.273Z,26.45
2023-05-06T01:34:20.957Z,24.90
2023-05-06T01:36:58.538Z,23.85
2023-05-06T01:39:25.580Z,25.60
2023-05-06T01:41:53.660Z,25.60
2023-05-06T01:44:21.520Z,28.05
2023-05-06T01:46:48.324Z,26.92
2023-05-06T01:49:15.897Z,25.13
2023-05-06T01:51:47.037Z,26.02
2023-05-06T01:54:13.293Z,24.70
2023-05-06T01:56:39.490Z,24.85
2023-05-06T01:59:05.697Z,26.55
2023-05-06T02:01:31.989Z,26.95
2023-05-06T02:03:58.264Z,27.92
2023-05-06T02:06:24.565Z,27.00
2023-05-06T02:08:51.208Z,25.73
2023-05-06T02:11:17.464Z,27.20
2023-05-06T02:13:43.668Z,23.75
2023-05-06T02:16:10.153Z,26.52
2023-05-06T02:18:36.401Z,25.98
2023-05-06T02:21:03.116Z,27.67
2023-05-06T02:23:29.459Z,32.20
2023-05-06T02:25:57.862Z,24.10
2023-05-06T02:28:24.824Z,26.30
2023-05-06T02:30:54.675Z,26.20
2023-05-06T02:33:21.735Z,23.50
2023-05-06T02:35:47.940Z,29.00
2023-05-06T02:38:14.140Z,28.40
2023-05-06T02:40:40.530Z,29.63
2023-05-06T02:43:06.754Z,29.17
2023-05-06T02:45:33.015Z,26.08
2023-05-06T02:47:59.266Z,27.65
2023-05-06T02:50:25.576Z,30.17
2023-05-06T02:52:51.759Z,28.63
2023-05-06T02:55:18.651Z,40.63
2023-05-06T02:57:44.848Z,30.85
2023-05-06T03:00:11.322Z,50.85
2023-05-06T03:02:37.544Z,45.75
2023-05-06T03:05:06.502Z,37.75
2023-05-06T03:07:32.835Z,34.35
2023-05-06T03:09:59.115Z,51.10
2023-05-06T03:12:25.440Z,36.22
2023-05-06T03:14:51.696Z,41.10
2023-05-06T03:17:17.906Z,43.47
2023-05-06T03:19:44.117Z,50.35
2023-05-06T03:22:10.347Z,28.98
2023-05-06T03:24:36.586Z,38.55
2023-05-06T03:27:02.799Z,32.30
2023-05-06T03:29:29.005Z,33.42
2023-05-06T03:31:56.096Z,20.00
2023-05-06T03:34:22.480Z,25.75
2023-05-06T03:36:48.732Z,28.83
2023-05-06T03:39:14.952Z,25.77
2023-05-06T03:41:41.199Z,19.95
2023-05-06T03:44:07.398Z,17.75
2023-05-06T03:46:33.647Z,20.17
2023-05-06T03:49:00.700Z,19.63
2023-05-06T03:51:27.507Z,16.60
2023-05-06T03:53:54.953Z,24.55
2023-05-06T03:56:22.172Z,33.75
2023-05-06T03:58:48.398Z,41.83
2023-05-06T04:01:14.848Z,25.35
2023-05-06T04:03:41.127Z,31.33
2023-05-06T04:06:07.395Z,30.50
2023-05-06T04:08:33.630Z,34.67
2023-05-06T04:11:03.391Z,44.97
2023-05-06T04:13:29.596Z,38.20
2023-05-06T04:15:56.673Z,34.25
2023-05-06T04:18:22.891Z,40.38
2023-05-06T04:20:49.438Z,29.77
2023-05-06T04:23:16.101Z,29.73
2023-05-06T04:25:48.518Z,46.20
2023-05-06T04:28:16.394Z,55.15
2023-05-06T04:30:45.841Z,52.75
2023-05-06T04:33:12.479Z,35.20
2023-05-06T04:35:39.297Z,35.70
2023-05-06T04:38:06.090Z,20.92
2023-05-06T04:40:35.033Z,53.90
2023-05-06T04:43:01.237Z,30.98
2023-05-06T04:45:29.603Z,43.70
2023-05-06T04:47:55.823Z,25.73
2023-05-06T04:50:22.040Z,30.48
2023-05-06T04:52:48.228Z,19.38
2023-05-06T04:55:14.422Z,16.60
2023-05-06T04:57:40.607Z,26.42
2023-05-06T05:00:07.333Z,27.02
2023-05-06T05:02:33.730Z,20.70
2023-05-06T05:05:00.745Z,19.75
2023-05-06T05:07:26.932Z,20.10
2023-05-06T05:09:53.142Z,28.40
2023-05-06T05:12:19.353Z,15.73
2023-05-06T05:14:47.200Z,16.30
2023-05-06T05:17:13.554Z,18.15
2023-05-06T05:19:39.859Z,21.80
2023-05-06T05:22:06.297Z,16.08
2023-05-06T05:24:32.609Z,14.45
2023-05-06T05:26:58.815Z,15.75
2023-05-06T05:29:25.012Z,19.92
2023-05-06T05:31:51.240Z,16.95
2023-05-06T05:34:17.455Z,17.13
2023-05-06T05:36:43.658Z,16.58
2023-05-06T05:39:10.041Z,17.15
2023-05-06T05:41:36.279Z,19.27
2023-05-06T05:44:02.722Z,18.80
2023-05-06T05:46:28.951Z,19.40
2023-05-06T05:48:55.181Z,20.67
2023-05-06T05:51:21.561Z,17.23
2023-05-06T05:53:47.876Z,17.20
2023-05-06T05:56:14.058Z,18.83
2023-05-06T05:58:40.293Z,17.33
2023-05-06T06:01:06.611Z,17.88
2023-05-06T06:03:33.001Z,15.43
2023-05-06T06:05:59.418Z,16.20
2023-05-06T06:08:26.636Z,18.02
2023-05-06T06:10:52.861Z,19.23
2023-05-06T06:13:19.259Z,19.90
2023-05-06T06:15:46.398Z,19.02
2023-05-06T06:18:12.644Z,19.00
2023-05-06T06:20:38.870Z,16.15
2023-05-06T06:23:05.119Z,13.40
2023-05-06T06:25:31.368Z,17.40
2023-05-06T06:27:57.563Z,12.25
2023-05-06T06:30:23.814Z,12.05
2023-05-06T06:32:51.223Z,11.85
2023-05-06T06:35:17.716Z,10.95
2023-05-06T06:37:44.051Z,10.90
2023-05-06T06:40:10.841Z,10.98
2023-05-06T06:42:37.874Z,11.10
2023-05-06T06:45:04.840Z,10.23
2023-05-06T06:47:31.126Z,10.20
2023-05-06T06:49:57.343Z,10.88
2023-05-06T06:52:23.541Z,9.52
2023-05-06T06:54:49.786Z,9.00
2023-05-06T06:57:16.038Z,9.25
2023-05-06T06:59:42.278Z,9.85
2023-05-06T07:02:08.531Z,8.20
2023-05-06T07:04:34.827Z,8.50
2023-05-06T07:07:01.259Z,8.73
2023-05-06T07:09:27.467Z,8.70
2023-05-06T07:11:53.657Z,8.68
2023-05-06T07:14:20.314Z,8.40
2023-05-06T07:16:47.612Z,7.53
2023-05-06T07:19:14.948Z,8.95
2023-05-06T07:21:41.192Z,6.60
2023-05-06T07:24:07.693Z,7.55
2023-05-06T07:26:37.234Z,6.68
2023-05-06T07:29:06.741Z,6.90
2023-05-06T07:31:33.450Z,6.15
2023-05-06T07:33:59.779Z,6.78
2023-05-06T07:36:26.975Z,5.25
2023-05-06T07:38:53.530Z,4.40
2023-05-06T07:41:20.010Z,5.38
2023-05-06T07:43:46.303Z,4.93
2023-05-06T07:46:12.599Z,4.70
2023-05-06T07:48:38.858Z,5.82
2023-05-06T07:51:05.082Z,4.32
2023-05-06T07:53:31.333Z,4.05
2023-05-06T07:56:01.817Z,4.07
2023-05-06T07:58:28.884Z,4.70
2023-05-06T08:00:55.236Z,2.95
2023-05-06T08:03:21.634Z,2.95
2023-05-06T08:05:49.493Z,2.67
2023-05-06T08:08:15.735Z,3.22
2023-05-06T08:10:43.407Z,1.95
2023-05-06T08:13:09.733Z,1.60
2023-05-06T08:15:36.127Z,1.92
2023-05-06T08:18:13.853Z,2.47
2023-05-06T08:20:47.622Z,2.70
2023-05-06T08:23:13.825Z,2.53
2023-05-06T08:25:40.189Z,2.63
2023-05-06T08:28:06.477Z,2.88
2023-05-06T08:30:32.724Z,2.28
2023-05-06T08:32:59.010Z,1.98
2023-05-06T08:35:25.271Z,3.22
2023-05-06T08:37:51.498Z,2.70
2023-05-06T08:40:19.397Z,2.80
2023-05-06T08:42:46.451Z,3.00
2023-05-06T08:45:13.007Z,3.78
2023-05-06T08:47:39.482Z,2.50
2023-05-06T08:50:06.440Z,2.90
2023-05-06T08:52:33.191Z,2.97
2023-05-06T08:55:03.412Z,2.40
2023-05-06T08:57:30.423Z,3.65
2023-05-06T08:59:56.930Z,3.40
2023-05-06T09:02:23.308Z,6.25
2023-05-06T09:04:49.599Z,6.13
2023-05-06T09:07:15.846Z,2.95
2023-05-06T09:09:42.062Z,3.38
2023-05-06T09:12:12.086Z,3.75
2023-05-06T09:14:38.403Z,2.85
2023-05-06T09:17:04.678Z,3.20
2023-05-06T09:19:31.394Z,2.20
2023-05-06T09:21:57.608Z,3.28
2023-05-06T09:24:24.162Z,3.17
2023-05-06T09:26:51.979Z,3.35
2023-05-06T09:29:18.179Z,2.55
2023-05-06T09:31:44.925Z,2.17
2023-05-06T09:34:11.572Z,1.98
2023-05-06T09:36:38.190Z,2.67
2023-05-06T09:39:04.680Z,1.80
2023-05-06T09:41:31.046Z,3.38
2023-05-06T09:43:58.977Z,1.40
2023-05-06T09:46:26.198Z,2.30
2023-05-06T09:48:54.187Z,1.52
2023-05-06T09:51:20.731Z,1.77
2023-05-06T09:53:47.168Z,2.97
2023-05-06T09:56:14.300Z,2.47
2023-05-06T09:58:40.841Z,2.45
2023-05-06T10:01:07.797Z,3.67
2023-05-06T10:03:34.918Z,1.77
2023-05-06T10:06:02.543Z,2.63
2023-05-06T10:08:29.105Z,5.93
2023-05-06T10:10:55.697Z,2.13
2023-05-06T10:13:22.842Z,3.80
2023-05-06T10:15:50.222Z,5.20
2023-05-06T10:18:17.390Z,4.25
2023-05-06T10:20:45.007Z,2.50
2023-05-06T10:23:31.310Z,3.17
2023-05-06T10:26:00.810Z,2.63
2023-05-06T10:28:31.082Z,4.30
2023-05-06T10:30:58.163Z,3.17
2023-05-06T10:33:24.911Z,1.90
2023-05-06T10:35:56.866Z,3.08
2023-05-06T10:38:26.643Z,2.20
2023-05-06T10:40:53.087Z,2.47
2023-05-06T10:43:19.762Z,3.00
2023-05-06T10:46:05.055Z,2.78
2023-05-06T10:48:31.649Z,1.73
2023-05-06T10:51:16.426Z,3.20
2023-05-06T10:53:55.697Z,3.38
2023-05-06T10:56:22.123Z,2.78
2023-05-06T10:58:48.490Z,2.67
2023-05-06T11:01:15.185Z,2.83
2023-05-06T11:03:44.314Z,2.40
2023-05-06T11:06:10.857Z,3.50
2023-05-06T11:08:37.481Z,2.45
2023-05-06T11:11:23.623Z,2.95
2023-05-06T11:13:52.101Z,2.85
2023-05-06T11:16:38.831Z,3.78
2023-05-06T11:19:05.324Z,1.85
2023-05-06T11:21:31.580Z,3.47
2023-05-06T11:23:57.757Z,4.88
2023-05-06T11:26:24.070Z,2.45
2023-05-06T11:28:51.039Z,1.55
2023-05-06T11:31:17.571Z,4.43
2023-05-06T11:33:47.669Z,1.58
2023-05-06T11:36:14.475Z,2.50
2023-05-06T11:38:44.370Z,2.58
2023-05-06T11:41:10.748Z,2.60
2023-05-06T11:43:36.978Z,2.72
2023-05-06T11:46:03.306Z,2.22
2023-05-06T11:48:29.674Z,3.45
2023-05-06T11:50:56.168Z,1.88
2023-05-06T11:53:23.328Z,1.83
2023-05-06T11:55:53.246Z,4.70
2023-05-06T11:58:21.067Z,1.75
2023-05-06T12:00:51.291Z,2.42
2023-05-06T12:03:18.515Z,1.75
2023-05-06T12:05:45.077Z,2.85
2023-05-06T12:08:23.658Z,1.40
2023-05-06T12:10:59.305Z,2.15
2023-05-06T12:13:26.640Z,2.25
2023-05-06T12:15:54.388Z,1.95
2023-05-06T12:18:20.849Z,2.10
2023-05-06T12:20:47.288Z,2.45
2023-05-06T12:23:14.531Z,2.33
2023-05-06T12:25:41.444Z,2.67
2023-05-06T12:28:15.161Z,2.17
2023-05-06T12:30:41.474Z,2.70
2023-05-06T12:33:08.266Z,3.63
2023-05-06T12:35:34.657Z,1.70
2023-05-06T12:38:13.952Z,3.55
2023-05-06T12:40:41.047Z,2.92
2023-05-06T12:43:07.508Z,3.17
2023-05-06T12:45:33.809Z,3.50
2023-05-06T12:48:05.150Z,2.97
2023-05-06T12:50:32.379Z,1.80
2023-05-06T12:52:58.592Z,5.47
2023-05-06T12:55:25.977Z,1.95
2023-05-06T12:57:52.394Z,3.80
2023-05-06T13:00:19.294Z,2.53
2023-05-06T13:02:46.127Z,1.15
2023-05-06T13:05:12.390Z,1.80
2023-05-06T13:07:38.569Z,2.55
2023-05-06T13:10:06.324Z,2.35
2023-05-06T13:12:33.032Z,1.60
2023-05-06T13:14:59.425Z,2.15
2023-05-06T13:17:26.346Z,2.58
2023-05-06T13:19:53.168Z,2.05
2023-05-06T13:22:19.909Z,2.65
2023-05-06T13:24:46.305Z,2.67
2023-05-06T13:27:12.535Z,1.58
2023-05-06T13:29:38.830Z,3.28
2023-05-06T13:32:07.940Z,1.80
2023-05-06T13:34:35.159Z,2.33
2023-05-06T13:37:01.354Z,1.45
2023-05-06T13:39:27.564Z,2.05
2023-05-06T13:41:54.152Z,5.43
2023-05-06T13:44:20.453Z,2.10
2023-05-06T13:46:47.054Z,2.78
2023-05-06T13:49:16.501Z,4.18
2023-05-06T13:51:51.513Z,3.08
2023-05-06T13:54:17.835Z,1.50
2023-05-06T13:56:44.110Z,3.13
2023-05-06T13:59:13.902Z,2.33
2023-05-06T14:01:41.440Z,5.20
2023-05-06T14:04:11.893Z,4.68
2023-05-06T14:07:01.993Z,4.60
2023-05-06T14:09:28.307Z,2.40
2023-05-06T14:11:54.552Z,3.63
2023-05-06T14:14:20.775Z,2.63
2023-05-06T14:16:47.529Z,4.78
2023-05-06T14:19:13.809Z,5.15
2023-05-06T14:21:40.055Z,2.58
2023-05-06T14:24:20.116Z,3.60
2023-05-06T14:26:46.507Z,4.30
2023-05-06T14:29:12.804Z,2.72
2023-05-06T14:31:39.100Z,6.20
2023-05-06T14:34:05.850Z,5.10
2023-05-06T14:36:32.130Z,3.17
2023-05-06T14:38:58.438Z,5.90
2023-05-06T14:41:24.664Z,2.15
2023-05-06T14:43:50.904Z,1.98
2023-05-06T14:46:17.738Z,2.72
2023-05-06T14:48:45.263Z,1.67
2023-05-06T14:51:11.514Z,1.85
2023-05-06T14:53:37.722Z,1.63
2023-05-06T14:56:04.188Z,7.60
2023-05-06T14:58:30.466Z,1.48
2023-05-06T15:00:56.894Z,0.93
2023-05-06T15:03:23.226Z,2.00
2023-05-06T15:05:50.857Z,1.52
2023-05-06T15:08:17.204Z,3.20
2023-05-06T15:10:43.567Z,2.00
2023-05-06T15:13:09.870Z,2.10
2023-05-06T15:15:36.192Z,2.42
2023-05-06T15:18:02.518Z,1.38
2023-05-06T15:20:28.833Z,1.23
2023-05-06T15:22:55.161Z,2.00
2023-05-06T15:25:34.403Z,2.72
2023-05-06T15:28:02.117Z,1.48
2023-05-06T15:30:28.348Z,1.42
2023-05-06T15:32:54.632Z,1.85
2023-05-06T15:35:20.929Z,2.88
2023-05-06T15:37:47.274Z,2.03
2023-05-06T15:40:18.486Z,2.33
2023-05-06T15:42:48.347Z,2.35
2023-05-06T15:45:14.815Z,2.17
2023-05-06T15:47:43.075Z,2.95
2023-05-06T15:50:21.225Z,3.25
2023-05-06T15:53:00.825Z,3.65
2023-05-06T15:55:41.620Z,3.22
2023-05-06T15:58:19.390Z,1.80
2023-05-06T16:00:46.296Z,2.33
2023-05-06T16:03:18.100Z,3.15
2023-05-06T16:05:44.798Z,2.58
2023-05-06T16:08:15.128Z,3.53
2023-05-06T16:10:44.260Z,3.08
2023-05-06T16:13:13.707Z,3.10
2023-05-06T16:15:44.849Z,2.97
2023-05-06T16:18:12.375Z,5.43
2023-05-06T16:20:41.288Z,3.70
2023-05-06T16:23:10.522Z,2.22
2023-05-06T16:25:42.653Z,2.75
2023-05-06T16:28:18.460Z,1.85
2023-05-06T16:30:47.768Z,3.47
2023-05-06T16:33:28.258Z,2.63
2023-05-06T16:35:54.684Z,4.80
2023-05-06T16:38:23.822Z,4.07
2023-05-06T16:40:54.122Z,4.07
2023-05-06T16:43:20.834Z,15.57
2023-05-06T16:46:07.333Z,57.85
2023-05-06T16:48:49.724Z,293.20
2023-05-06T16:51:47.637Z,92.80
2023-05-06T16:54:17.596Z,31.25
2023-05-06T16:59:37.483Z,15.38
2023-05-06T17:12:33.537Z,5.75
2023-05-06T17:18:09.331Z,4.72
2023-05-06T17:21:08.795Z,5.38
2023-05-06T17:23:36.432Z,4.80
2023-05-06T17:26:06.510Z,3.13
2023-05-06T17:28:36.745Z,3.92
2023-05-06T17:31:05.078Z,4.10
2023-05-06T17:38:03.176Z,3.30
2023-05-06T17:44:53.847Z,4.68
2023-05-06T17:47:22.899Z,4.20
2023-05-06T17:49:52.992Z,3.80
2023-05-06T17:52:19.457Z,4.22
2023-05-06T17:54:46.091Z,3.80
2023-05-06T17:57:12.478Z,3.95
2023-05-06T17:59:38.726Z,5.10
2023-05-06T18:02:08.210Z,5.35
2023-05-06T18:04:34.734Z,7.72
2023-05-06T18:07:00.965Z,6.22
2023-05-06T18:09:27.268Z,3.78
2023-05-06T18:11:53.509Z,4.30
2023-05-06T18:14:19.846Z,5.30
2023-05-06T18:16:46.108Z,6.30
2023-05-06T18:19:12.439Z,4.65
2023-05-06T18:21:39.059Z,4.72
2023-05-06T18:24:15.477Z,6.88
2023-05-06T18:26:45.209Z,6.05
2023-05-06T18:29:11.998Z,6.20
2023-05-06T18:31:38.322Z,3.60
2023-05-06T18:34:04.832Z,5.63
2023-05-06T18:36:31.112Z,4.80
2023-05-06T18:38:57.344Z,7.03
2023-05-06T18:41:23.565Z,5.60
2023-05-06T18:43:49.932Z,4.70
2023-05-06T18:46:16.211Z,4.10
2023-05-06T18:48:42.529Z,5.10
2023-05-06T18:51:16.115Z,3.83
2023-05-06T18:53:42.954Z,4.63
2023-05-06T18:56:09.690Z,5.30
2023-05-06T18:58:39.757Z,6.05
2023-05-06T19:01:06.848Z,4.35
2023-05-06T19:03:34.384Z,3.55
2023-05-06T19:06:02.477Z,4.00
2023-05-06T19:08:29.045Z,4.65
2023-05-06T19:10:55.375Z,6.80
2023-05-06T19:13:21.882Z,6.85
2023-05-06T19:15:48.178Z,7.80
2023-05-06T19:18:14.490Z,6.85
2023-05-06T19:20:40.794Z,5.07
2023-05-06T19:23:07.133Z,4.32
2023-05-06T19:25:37.458Z,3.78
2023-05-06T19:28:04.717Z,3.90
2023-05-06T19:30:32.077Z,4.07
2023-05-06T19:32:58.959Z,4.55
2023-05-06T19:35:25.252Z,4.15
2023-05-06T19:37:51.530Z,4.50
2023-05-06T19:40:21.852Z,6.47
2023-05-06T19:42:48.329Z,8.00
2023-05-06T19:45:16.451Z,6.93
2023-05-06T19:47:44.199Z,7.05
2023-05-06T19:50:10.589Z,7.50
2023-05-06T19:52:37.008Z,8.02
2023-05-06T19:55:03.661Z,20.90
2023-05-06T19:57:30.157Z,11.68
2023-05-06T19:59:56.948Z,6.38
2023-05-06T20:02:23.579Z,8.80
2023-05-06T20:04:50.030Z,6.40
2023-05-06T20:07:17.256Z,5.35
2023-05-06T20:09:43.621Z,5.85
2023-05-06T20:12:10.233Z,6.10
2023-05-06T20:14:36.540Z,5.90
2023-05-06T20:17:02.787Z,7.60
2023-05-06T20:19:31.042Z,5.35
2023-05-06T20:21:57.587Z,6.18
2023-05-06T20:24:24.394Z,6.28
2023-05-06T20:26:50.865Z,5.35
2023-05-06T20:29:17.442Z,5.10
2023-05-06T20:31:48.670Z,6.63
2023-05-06T20:34:15.147Z,6.80
2023-05-06T20:36:41.736Z,6.80
2023-05-06T20:39:09.988Z,5.13
2023-05-06T20:41:36.207Z,6.15
2023-05-06T20:44:02.612Z,6.60
2023-05-06T20:46:28.843Z,6.53
2023-05-06T20:48:55.185Z,5.82
2023-05-06T20:51:21.431Z,8.35
2023-05-06T20:53:48.069Z,7.65
2023-05-06T20:56:21.912Z,7.00
2023-05-06T20:58:48.209Z,8.50
2023-05-06T21:01:15.236Z,15.75
2023-05-06T21:03:41.971Z,15.13
2023-05-06T21:06:08.362Z,18.60
2023-05-06T21:08:34.667Z,14.07
2023-05-06T21:11:00.868Z,14.63
2023-05-06T21:13:27.161Z,15.82
2023-05-06T21:15:53.513Z,14.20
2023-05-06T21:18:19.862Z,16.33
2023-05-06T21:20:46.153Z,14.20
2023-05-06T21:23:12.442Z,13.18
2023-05-06T21:25:38.677Z,15.35
2023-05-06T21:28:06.231Z,13.73
2023-05-06T21:30:34.776Z,12.20
2023-05-06T21:33:01.314Z,9.98
2023-05-06T21:35:27.718Z,8.98
2023-05-06T21:37:53.911Z,8.48
2023-05-06T21:40:20.782Z,8.18
2023-05-06T21:42:46.980Z,9.20
2023-05-06T21:45:13.399Z,10.00
2023-05-06T21:47:39.623Z,11.00
2023-05-06T21:50:06.254Z,10.40
2023-05-06T21:52:32.534Z,11.48
2023-05-06T21:54:58.891Z,7.82
2023-05-06T21:57:25.234Z,7.18
2023-05-06T21:59:51.953Z,8.98
2023-05-06T22:02:18.170Z,8.18
2023-05-06T22:04:44.397Z,8.48
2023-05-06T22:07:10.723Z,7.95
2023-05-06T22:09:36.927Z,8.07
2023-05-06T22:12:06.583Z,7.70
2023-05-06T22:14:40.463Z,7.78
2023-05-06T22:17:07.938Z,6.57
2023-05-06T22:19:34.332Z,8.32
2023-05-06T22:22:01.073Z,8.02
2023-05-06T22:24:27.330Z,7.72
2023-05-06T22:26:53.568Z,6.90
2023-05-06T22:29:19.753Z,6.70
2023-05-06T22:31:46.123Z,10.02
2023-05-06T22:34:12.397Z,8.90
2023-05-06T22:36:38.621Z,7.57
2023-05-06T22:39:04.872Z,11.80
2023-05-06T22:41:31.147Z,6.18
2023-05-06T22:43:59.302Z,7.45
2023-05-06T22:46:25.796Z,7.05
2023-05-06T22:48:52.018Z,8.00
2023-05-06T22:51:19.986Z,6.30
2023-05-06T22:53:46.189Z,6.35
2023-05-06T22:56:12.508Z,5.90
2023-05-06T22:58:38.732Z,5.57
2023-05-06T23:01:07.079Z,4.97
2023-05-06T23:03:33.342Z,6.30
2023-05-06T23:05:59.581Z,5.22
2023-05-06T23:08:25.873Z,5.40
2023-05-06T23:10:52.091Z,6.30
2023-05-06T23:13:18.353Z,7.28
2023-05-06T23:15:44.599Z,4.80
2023-05-06T23:18:10.844Z,6.13
2023-05-06T23:20:37.085Z,5.95
2023-05-06T23:23:03.544Z,5.63
2023-05-06T23:25:29.746Z,6.82
2023-05-06T23:27:56.133Z,5.40
2023-05-06T23:30:22.370Z,5.68
2023-05-06T23:32:48.589Z,5.05
2023-05-06T23:35:14.800Z,6.03
2023-05-06T23:37:41.120Z,6.25
2023-05-06T23:40:07.725Z,6.07
2023-05-06T23:42:34.001Z,6.38
2023-05-06T23:45:00.719Z,5.97
2023-05-06T23:47:26.990Z,5.32
2023-05-06T23:49:53.277Z,6.28
2023-05-06T23:52:19.521Z,8.65
2023-05-06T23:54:45.722Z,5.22
2023-05-06T23:57:12.383Z,5.15
2023-05-06T23:59:38.578Z,5.88
